sensor_id;sensor_type;location;lat;lon;timestamp;temperature;humidity
9383;DHT22;4731;49.708;10.816;2023-07-31T00:01:43;15.70;99.90
9383;DHT22;4731;49.708;10.816;2023-07-31T00:04:10;17.80;99.90
9383;DHT22;4731;49.708;10.816;2023-07-31T00:06:37;18.00;99.90
9383;DHT22;4731;49.708;10.816;2023-07-31T00:09:05;15.70;99.90
9383;DHT22;4731;49.708;10.816;2023-07-31T00:11:32;15.70;99.90
9383;DHT22;4731;49.708;10.816;2023-07-31T00:13:59;15.80;99.90
9383;DHT22;4731;49.708;10.816;2023-07-31T00:16:25;15.80;99.90
9383;DHT22;4731;49.708;10.816;2023-07-31T00:18:52;16.30;99.90
9383;DHT22;4731;49.708;10.816;2023-07-31T00:21:19;15.90;99.90
9383;DHT22;4731;49.708;10.816;2023-07-31T00:23:45;16.00;99.90
9383;DHT22;4731;49.708;10.816;2023-07-31T00:26:14;16.00;99.90
9383;DHT22;4731;49.708;10.816;2023-07-31T00:28:40;16.00;99.90
9383;DHT22;4731;49.708;10.816;2023-07-31T00:31:07;16.00;99.90
9383;DHT22;4731;49.708;10.816;2023-07-31T00:33:34;16.40;99.90
9383;DHT22;4731;49.708;10.816;2023-07-31T00:36:01;16.00;99.90
9383;DHT22;4731;49.708;10.816;2023-07-31T00:38:28;15.90;99.90
9383;DHT22;4731;49.708;10.816;2023-07-31T00:40:55;15.90;99.90
9383;DHT22;4731;49.708;10.816;2023-07-31T00:43:23;17.30;99.90
9383;DHT22;4731;49.708;10.816;2023-07-31T00:45:49;16.00;99.90
9383;DHT22;4731;49.708;10.816;2023-07-31T00:48:16;16.00;99.90
9383;DHT22;4731;49.708;10.816;2023-07-31T00:50:43;15.90;99.90
9383;DHT22;4731;49.708;10.816;2023-07-31T00:53:10;16.10;99.90
9383;DHT22;4731;49.708;10.816;2023-07-31T00:55:37;17.20;99.90
9383;DHT22;4731;49.708;10.816;2023-07-31T00:58:04;17.00;99.90
9383;DHT22;4731;49.708;10.816;2023-07-31T01:00:32;16.10;99.90
9383;DHT22;4731;49.708;10.816;2023-07-31T01:02:59;16.10;99.90
9383;DHT22;4731;49.708;10.816;2023-07-31T01:05:33;16.80;99.90
9383;DHT22;4731;49.708;10.816;2023-07-31T01:08:07;16.20;99.90
9383;DHT22;4731;49.708;10.816;2023-07-31T01:10:41;16.10;99.90
9383;DHT22;4731;49.708;10.816;2023-07-31T01:13:13;16.30;99.90
9383;DHT22;4731;49.708;10.816;2023-07-31T01:15:41;16.50;99.90
9383;DHT22;4731;49.708;10.816;2023-07-31T01:18:08;16.20;99.90
9383;DHT22;4731;49.708;10.816;2023-07-31T01:20:35;16.20;99.90
9383;DHT22;4731;49.708;10.816;2023-07-31T01:23:49;16.20;99.90
9383;DHT22;4731;49.708;10.816;2023-07-31T01:26:20;16.20;99.90
9383;DHT22;4731;49.708;10.816;2023-07-31T01:28:55;16.10;99.90
9383;DHT22;4731;49.708;10.816;2023-07-31T01:31:24;16.20;99.90
9383;DHT22;4731;49.708;10.816;2023-07-31T01:33:53;16.20;99.90
9383;DHT22;4731;49.708;10.816;2023-07-31T01:36:21;18.50;99.90
9383;DHT22;4731;49.708;10.816;2023-07-31T01:38:48;16.30;99.90
9383;DHT22;4731;49.708;10.816;2023-07-31T01:41:18;16.40;99.90
9383;DHT22;4731;49.708;10.816;2023-07-31T01:43:44;16.30;99.90
9383;DHT22;4731;49.708;10.816;2023-07-31T01:46:11;17.80;99.90
9383;DHT22;4731;49.708;10.816;2023-07-31T01:48:38;16.30;99.90
9383;DHT22;4731;49.708;10.816;2023-07-31T01:51:05;16.40;99.90
9383;DHT22;4731;49.708;10.816;2023-07-31T01:53:32;16.20;99.90
9383;DHT22;4731;49.708;10.816;2023-07-31T01:55:59;16.20;99.90
9383;DHT22;4731;49.708;10.816;2023-07-31T01:58:27;16.30;99.90
9383;DHT22;4731;49.708;10.816;2023-07-31T02:00:53;16.50;99.90
9383;DHT22;4731;49.708;10.816;2023-07-31T02:03:20;16.20;99.90
9383;DHT22;4731;49.708;10.816;2023-07-31T02:05:48;16.20;99.90
9383;DHT22;4731;49.708;10.816;2023-07-31T02:08:15;16.20;99.90
9383;DHT22;4731;49.708;10.816;2023-07-31T02:10:43;18.70;99.90
9383;DHT22;4731;49.708;10.816;2023-07-31T02:13:10;16.20;99.90
9383;DHT22;4731;49.708;10.816;2023-07-31T02:15:38;16.20;99.90
9383;DHT22;4731;49.708;10.816;2023-07-31T02:18:04;16.10;99.90
9383;DHT22;4731;49.708;10.816;2023-07-31T02:20:33;16.10;99.90
9383;DHT22;4731;49.708;10.816;2023-07-31T02:23:00;16.10;99.90
9383;DHT22;4731;49.708;10.816;2023-07-31T02:25:27;17.40;99.90
9383;DHT22;4731;49.708;10.816;2023-07-31T02:27:54;16.10;99.90
9383;DHT22;4731;49.708;10.816;2023-07-31T02:30:21;16.10;99.90
9383;DHT22;4731;49.708;10.816;2023-07-31T02:32:49;16.10;99.90
9383;DHT22;4731;49.708;10.816;2023-07-31T02:35:16;16.20;99.90
9383;DHT22;4731;49.708;10.816;2023-07-31T02:37:44;16.30;99.90
9383;DHT22;4731;49.708;10.816;2023-07-31T02:40:11;16.30;99.90
9383;DHT22;4731;49.708;10.816;2023-07-31T02:42:38;16.30;99.90
9383;DHT22;4731;49.708;10.816;2023-07-31T02:45:06;16.30;99.90
9383;DHT22;4731;49.708;10.816;2023-07-31T02:47:33;16.40;99.90
9383;DHT22;4731;49.708;10.816;2023-07-31T02:50:01;16.40;99.90
9383;DHT22;4731;49.708;10.816;2023-07-31T02:52:28;16.50;99.90
9383;DHT22;4731;49.708;10.816;2023-07-31T02:54:55;16.30;99.90
9383;DHT22;4731;49.708;10.816;2023-07-31T02:57:22;16.30;99.90
9383;DHT22;4731;49.708;10.816;2023-07-31T02:59:48;16.30;99.90
9383;DHT22;4731;49.708;10.816;2023-07-31T03:02:15;16.30;99.90
9383;DHT22;4731;49.708;10.816;2023-07-31T03:04:42;16.40;99.90
9383;DHT22;4731;49.708;10.816;2023-07-31T03:07:10;16.40;99.90
9383;DHT22;4731;49.708;10.816;2023-07-31T03:09:37;16.40;99.90
9383;DHT22;4731;49.708;10.816;2023-07-31T03:12:04;16.50;99.90
9383;DHT22;4731;49.708;10.816;2023-07-31T03:14:31;16.40;99.90
9383;DHT22;4731;49.708;10.816;2023-07-31T03:16:57;16.40;99.90
9383;DHT22;4731;49.708;10.816;2023-07-31T03:19:24;17.40;99.90
9383;DHT22;4731;49.708;10.816;2023-07-31T03:21:51;16.50;99.90
9383;DHT22;4731;49.708;10.816;2023-07-31T03:24:19;16.40;99.90
9383;DHT22;4731;49.708;10.816;2023-07-31T03:26:45;16.50;99.90
9383;DHT22;4731;49.708;10.816;2023-07-31T03:29:12;16.50;99.90
9383;DHT22;4731;49.708;10.816;2023-07-31T03:31:39;16.50;99.90
9383;DHT22;4731;49.708;10.816;2023-07-31T03:34:06;16.50;99.90
9383;DHT22;4731;49.708;10.816;2023-07-31T03:36:33;16.50;99.90
9383;DHT22;4731;49.708;10.816;2023-07-31T03:38:59;16.50;99.90
9383;DHT22;4731;49.708;10.816;2023-07-31T03:41:27;16.50;99.90
9383;DHT22;4731;49.708;10.816;2023-07-31T03:43:54;16.50;99.90
9383;DHT22;4731;49.708;10.816;2023-07-31T03:46:21;16.50;99.90
9383;DHT22;4731;49.708;10.816;2023-07-31T03:48:48;17.60;99.90
9383;DHT22;4731;49.708;10.816;2023-07-31T03:51:15;16.60;99.90
9383;DHT22;4731;49.708;10.816;2023-07-31T03:53:43;16.50;99.90
9383;DHT22;4731;49.708;10.816;2023-07-31T03:56:10;16.40;99.90
9383;DHT22;4731;49.708;10.816;2023-07-31T03:58:38;16.40;99.90
9383;DHT22;4731;49.708;10.816;2023-07-31T04:01:04;16.40;99.90
9383;DHT22;4731;49.708;10.816;2023-07-31T04:03:31;16.40;99.90
9383;DHT22;4731;49.708;10.816;2023-07-31T04:05:58;17.60;99.90
9383;DHT22;4731;49.708;10.816;2023-07-31T04:08:25;17.50;99.90
9383;DHT22;4731;49.708;10.816;2023-07-31T04:10:51;18.40;99.90
9383;DHT22;4731;49.708;10.816;2023-07-31T04:13:18;16.30;99.90
9383;DHT22;4731;49.708;10.816;2023-07-31T04:15:49;16.30;99.90
9383;DHT22;4731;49.708;10.816;2023-07-31T04:18:16;16.70;99.90
9383;DHT22;4731;49.708;10.816;2023-07-31T04:20:43;16.30;99.90
9383;DHT22;4731;49.708;10.816;2023-07-31T04:23:10;16.40;99.90
9383;DHT22;4731;49.708;10.816;2023-07-31T04:25:36;16.40;99.90
9383;DHT22;4731;49.708;10.816;2023-07-31T04:28:03;16.40;99.90
9383;DHT22;4731;49.708;10.816;2023-07-31T04:30:30;16.30;99.90
9383;DHT22;4731;49.708;10.816;2023-07-31T04:32:58;16.40;99.90
9383;DHT22;4731;49.708;10.816;2023-07-31T04:35:25;16.40;99.90
9383;DHT22;4731;49.708;10.816;2023-07-31T04:37:52;17.10;99.90
9383;DHT22;4731;49.708;10.816;2023-07-31T04:40:18;16.70;99.90
9383;DHT22;4731;49.708;10.816;2023-07-31T04:42:45;16.70;99.90
9383;DHT22;4731;49.708;10.816;2023-07-31T04:45:12;16.50;99.90
9383;DHT22;4731;49.708;10.816;2023-07-31T04:47:39;18.70;99.90
9383;DHT22;4731;49.708;10.816;2023-07-31T04:50:08;17.00;99.90
9383;DHT22;4731;49.708;10.816;2023-07-31T04:52:35;16.50;99.90
9383;DHT22;4731;49.708;10.816;2023-07-31T04:55:02;16.60;99.90
9383;DHT22;4731;49.708;10.816;2023-07-31T04:57:29;16.70;99.90
9383;DHT22;4731;49.708;10.816;2023-07-31T04:59:55;16.80;99.90
9383;DHT22;4731;49.708;10.816;2023-07-31T05:02:22;16.90;99.90
9383;DHT22;4731;49.708;10.816;2023-07-31T05:04:50;17.00;99.90
9383;DHT22;4731;49.708;10.816;2023-07-31T05:07:18;17.70;99.90
9383;DHT22;4731;49.708;10.816;2023-07-31T05:09:44;19.10;99.90
9383;DHT22;4731;49.708;10.816;2023-07-31T05:12:11;17.20;99.90
9383;DHT22;4731;49.708;10.816;2023-07-31T05:14:38;18.60;99.90
9383;DHT22;4731;49.708;10.816;2023-07-31T05:17:05;17.20;99.90
9383;DHT22;4731;49.708;10.816;2023-07-31T05:19:32;17.30;99.90
9383;DHT22;4731;49.708;10.816;2023-07-31T05:21:59;17.40;99.90
9383;DHT22;4731;49.708;10.816;2023-07-31T05:24:27;17.40;99.90
9383;DHT22;4731;49.708;10.816;2023-07-31T05:26:53;18.90;99.90
9383;DHT22;4731;49.708;10.816;2023-07-31T05:29:20;17.50;99.90
9383;DHT22;4731;49.708;10.816;2023-07-31T05:31:47;17.40;99.90
9383;DHT22;4731;49.708;10.816;2023-07-31T05:34:14;17.40;99.90
9383;DHT22;4731;49.708;10.816;2023-07-31T05:36:40;18.60;99.90
9383;DHT22;4731;49.708;10.816;2023-07-31T05:39:07;17.70;99.90
9383;DHT22;4731;49.708;10.816;2023-07-31T05:41:36;17.60;99.90
9383;DHT22;4731;49.708;10.816;2023-07-31T05:44:03;17.60;99.90
9383;DHT22;4731;49.708;10.816;2023-07-31T05:46:30;17.70;99.90
9383;DHT22;4731;49.708;10.816;2023-07-31T05:48:57;17.80;99.90
9383;DHT22;4731;49.708;10.816;2023-07-31T05:51:26;19.30;99.90
9383;DHT22;4731;49.708;10.816;2023-07-31T05:53:53;17.90;99.90
9383;DHT22;4731;49.708;10.816;2023-07-31T05:56:20;18.00;99.90
9383;DHT22;4731;49.708;10.816;2023-07-31T05:58:48;18.10;99.90
9383;DHT22;4731;49.708;10.816;2023-07-31T06:01:16;18.30;99.90
9383;DHT22;4731;49.708;10.816;2023-07-31T06:03:42;18.50;99.90
9383;DHT22;4731;49.708;10.816;2023-07-31T06:06:10;18.60;99.90
9383;DHT22;4731;49.708;10.816;2023-07-31T06:08:39;18.60;99.90
9383;DHT22;4731;49.708;10.816;2023-07-31T06:11:06;18.70;99.90
9383;DHT22;4731;49.708;10.816;2023-07-31T06:13:34;18.60;99.90
9383;DHT22;4731;49.708;10.816;2023-07-31T06:16:03;18.40;99.90
9383;DHT22;4731;49.708;10.816;2023-07-31T06:18:30;18.40;99.90
9383;DHT22;4731;49.708;10.816;2023-07-31T06:20:57;18.50;99.90
9383;DHT22;4731;49.708;10.816;2023-07-31T06:23:24;18.50;99.90
9383;DHT22;4731;49.708;10.816;2023-07-31T06:25:51;18.40;99.90
9383;DHT22;4731;49.708;10.816;2023-07-31T06:28:18;18.40;99.90
9383;DHT22;4731;49.708;10.816;2023-07-31T06:30:45;18.30;99.90
9383;DHT22;4731;49.708;10.816;2023-07-31T06:33:13;18.40;99.90
9383;DHT22;4731;49.708;10.816;2023-07-31T06:35:39;18.40;99.90
9383;DHT22;4731;49.708;10.816;2023-07-31T06:38:06;17.50;99.90
9383;DHT22;4731;49.708;10.816;2023-07-31T06:40:33;18.60;99.90
9383;DHT22;4731;49.708;10.816;2023-07-31T06:43:00;18.60;99.90
9383;DHT22;4731;49.708;10.816;2023-07-31T06:45:33;18.70;99.90
9383;DHT22;4731;49.708;10.816;2023-07-31T06:48:00;18.90;99.90
9383;DHT22;4731;49.708;10.816;2023-07-31T06:50:29;20.10;99.90
9383;DHT22;4731;49.708;10.816;2023-07-31T06:52:55;19.20;99.90
9383;DHT22;4731;49.708;10.816;2023-07-31T06:55:24;19.20;99.90
9383;DHT22;4731;49.708;10.816;2023-07-31T06:57:52;19.40;99.90
9383;DHT22;4731;49.708;10.816;2023-07-31T07:00:20;19.90;99.90
9383;DHT22;4731;49.708;10.816;2023-07-31T07:02:48;19.50;99.90
9383;DHT22;4731;49.708;10.816;2023-07-31T07:05:15;19.50;99.90
9383;DHT22;4731;49.708;10.816;2023-07-31T07:07:44;19.50;99.90
9383;DHT22;4731;49.708;10.816;2023-07-31T07:10:11;19.60;99.90
9383;DHT22;4731;49.708;10.816;2023-07-31T07:12:38;19.60;99.90
9383;DHT22;4731;49.708;10.816;2023-07-31T07:15:05;19.60;99.90
9383;DHT22;4731;49.708;10.816;2023-07-31T07:17:32;19.50;99.90
9383;DHT22;4731;49.708;10.816;2023-07-31T07:19:59;19.60;99.90
9383;DHT22;4731;49.708;10.816;2023-07-31T07:22:27;19.50;99.90
9383;DHT22;4731;49.708;10.816;2023-07-31T07:24:55;19.50;99.90
9383;DHT22;4731;49.708;10.816;2023-07-31T07:27:22;19.60;99.90
9383;DHT22;4731;49.708;10.816;2023-07-31T07:29:50;19.70;99.90
9383;DHT22;4731;49.708;10.816;2023-07-31T07:32:18;19.70;99.90
9383;DHT22;4731;49.708;10.816;2023-07-31T07:34:45;19.80;99.90
9383;DHT22;4731;49.708;10.816;2023-07-31T07:37:11;19.80;99.90
9383;DHT22;4731;49.708;10.816;2023-07-31T07:39:38;19.90;99.90
9383;DHT22;4731;49.708;10.816;2023-07-31T07:42:06;19.90;99.90
9383;DHT22;4731;49.708;10.816;2023-07-31T07:44:33;20.00;99.90
9383;DHT22;4731;49.708;10.816;2023-07-31T07:47:00;20.20;99.90
9383;DHT22;4731;49.708;10.816;2023-07-31T07:49:27;20.40;99.90
9383;DHT22;4731;49.708;10.816;2023-07-31T07:51:53;20.50;99.90
9383;DHT22;4731;49.708;10.816;2023-07-31T07:54:20;20.60;99.90
9383;DHT22;4731;49.708;10.816;2023-07-31T07:56:47;20.70;99.90
9383;DHT22;4731;49.708;10.816;2023-07-31T07:59:16;20.90;99.90
9383;DHT22;4731;49.708;10.816;2023-07-31T08:01:43;21.10;99.90
9383;DHT22;4731;49.708;10.816;2023-07-31T08:04:09;21.20;99.90
9383;DHT22;4731;49.708;10.816;2023-07-31T08:06:36;21.40;99.90
9383;DHT22;4731;49.708;10.816;2023-07-31T08:09:03;21.70;99.90
9383;DHT22;4731;49.708;10.816;2023-07-31T08:11:32;22.00;99.90
9383;DHT22;4731;49.708;10.816;2023-07-31T08:13:58;22.00;99.90
9383;DHT22;4731;49.708;10.816;2023-07-31T08:16:27;22.00;99.90
9383;DHT22;4731;49.708;10.816;2023-07-31T08:18:54;22.00;99.90
9383;DHT22;4731;49.708;10.816;2023-07-31T08:21:21;23.70;99.90
9383;DHT22;4731;49.708;10.816;2023-07-31T08:23:48;21.70;99.90
9383;DHT22;4731;49.708;10.816;2023-07-31T08:26:15;21.90;99.90
9383;DHT22;4731;49.708;10.816;2023-07-31T08:28:43;22.20;99.90
9383;DHT22;4731;49.708;10.816;2023-07-31T08:31:10;23.90;99.90
9383;DHT22;4731;49.708;10.816;2023-07-31T08:33:38;24.40;99.90
9383;DHT22;4731;49.708;10.816;2023-07-31T08:36:07;23.00;99.90
9383;DHT22;4731;49.708;10.816;2023-07-31T08:38:34;23.40;99.90
9383;DHT22;4731;49.708;10.816;2023-07-31T08:41:02;23.50;99.90
9383;DHT22;4731;49.708;10.816;2023-07-31T08:43:30;24.20;99.90
9383;DHT22;4731;49.708;10.816;2023-07-31T08:45:57;23.80;99.90
9383;DHT22;4731;49.708;10.816;2023-07-31T08:48:24;24.10;99.90
9383;DHT22;4731;49.708;10.816;2023-07-31T08:50:53;24.30;99.90
9383;DHT22;4731;49.708;10.816;2023-07-31T08:53:20;24.40;99.90
9383;DHT22;4731;49.708;10.816;2023-07-31T08:55:47;24.10;99.90
9383;DHT22;4731;49.708;10.816;2023-07-31T08:58:15;23.90;99.90
9383;DHT22;4731;49.708;10.816;2023-07-31T09:00:43;24.10;99.90
9383;DHT22;4731;49.708;10.816;2023-07-31T09:03:14;23.50;99.90
9383;DHT22;4731;49.708;10.816;2023-07-31T09:05:43;23.30;99.90
9383;DHT22;4731;49.708;10.816;2023-07-31T09:08:12;23.40;99.90
9383;DHT22;4731;49.708;10.816;2023-07-31T09:10:43;23.80;99.90
9383;DHT22;4731;49.708;10.816;2023-07-31T09:13:11;24.20;99.90
9383;DHT22;4731;49.708;10.816;2023-07-31T09:15:39;23.70;99.90
9383;DHT22;4731;49.708;10.816;2023-07-31T09:18:07;24.40;99.90
9383;DHT22;4731;49.708;10.816;2023-07-31T09:20:34;23.80;99.90
9383;DHT22;4731;49.708;10.816;2023-07-31T09:23:07;23.10;99.90
9383;DHT22;4731;49.708;10.816;2023-07-31T09:25:36;23.40;99.90
9383;DHT22;4731;49.708;10.816;2023-07-31T09:28:05;23.40;99.90
9383;DHT22;4731;49.708;10.816;2023-07-31T09:30:44;23.70;99.90
9383;DHT22;4731;49.708;10.816;2023-07-31T09:33:11;23.60;99.90
9383;DHT22;4731;49.708;10.816;2023-07-31T09:35:39;23.50;99.90
9383;DHT22;4731;49.708;10.816;2023-07-31T09:38:09;25.60;99.90
9383;DHT22;4731;49.708;10.816;2023-07-31T09:40:38;23.50;99.90
9383;DHT22;4731;49.708;10.816;2023-07-31T09:43:06;23.60;99.90
9383;DHT22;4731;49.708;10.816;2023-07-31T09:45:35;23.40;99.90
9383;DHT22;4731;49.708;10.816;2023-07-31T09:48:03;23.30;99.90
9383;DHT22;4731;49.708;10.816;2023-07-31T09:50:30;23.00;99.90
9383;DHT22;4731;49.708;10.816;2023-07-31T09:52:57;23.00;99.90
9383;DHT22;4731;49.708;10.816;2023-07-31T09:55:24;22.70;99.90
9383;DHT22;4731;49.708;10.816;2023-07-31T09:57:54;22.70;99.90
9383;DHT22;4731;49.708;10.816;2023-07-31T10:00:22;22.70;99.90
9383;DHT22;4731;49.708;10.816;2023-07-31T10:02:51;22.70;99.90
9383;DHT22;4731;49.708;10.816;2023-07-31T10:05:19;22.60;99.90
9383;DHT22;4731;49.708;10.816;2023-07-31T10:07:51;23.20;99.90
9383;DHT22;4731;49.708;10.816;2023-07-31T10:10:20;23.70;99.90
9383;DHT22;4731;49.708;10.816;2023-07-31T10:12:48;24.00;99.90
9383;DHT22;4731;49.708;10.816;2023-07-31T10:15:18;24.40;99.90
9383;DHT22;4731;49.708;10.816;2023-07-31T10:17:47;25.30;99.90
9383;DHT22;4731;49.708;10.816;2023-07-31T10:20:15;25.90;99.90
9383;DHT22;4731;49.708;10.816;2023-07-31T10:22:43;25.70;99.90
9383;DHT22;4731;49.708;10.816;2023-07-31T10:25:11;25.60;99.90
9383;DHT22;4731;49.708;10.816;2023-07-31T10:27:39;25.80;99.90
9383;DHT22;4731;49.708;10.816;2023-07-31T10:30:08;26.10;99.90
9383;DHT22;4731;49.708;10.816;2023-07-31T10:32:38;26.30;99.90
9383;DHT22;4731;49.708;10.816;2023-07-31T10:35:06;26.20;99.90
9383;DHT22;4731;49.708;10.816;2023-07-31T10:37:36;25.20;99.90
9383;DHT22;4731;49.708;10.816;2023-07-31T10:40:05;24.70;99.90
9383;DHT22;4731;49.708;10.816;2023-07-31T10:42:34;24.30;99.90
9383;DHT22;4731;49.708;10.816;2023-07-31T10:45:03;23.90;99.90
9383;DHT22;4731;49.708;10.816;2023-07-31T10:47:31;23.80;99.90
9383;DHT22;4731;49.708;10.816;2023-07-31T10:50:17;23.80;99.90
9383;DHT22;4731;49.708;10.816;2023-07-31T10:52:49;24.00;99.90
9383;DHT22;4731;49.708;10.816;2023-07-31T10:55:27;24.00;99.90
9383;DHT22;4731;49.708;10.816;2023-07-31T10:57:56;24.40;99.90
9383;DHT22;4731;49.708;10.816;2023-07-31T11:00:26;26.20;99.90
9383;DHT22;4731;49.708;10.816;2023-07-31T11:03:00;25.40;99.90
9383;DHT22;4731;49.708;10.816;2023-07-31T11:05:50;25.70;99.90
9383;DHT22;4731;49.708;10.816;2023-07-31T11:08:21;25.90;99.90
9383;DHT22;4731;49.708;10.816;2023-07-31T11:10:50;25.60;99.90
9383;DHT22;4731;49.708;10.816;2023-07-31T11:13:17;25.30;99.90
9383;DHT22;4731;49.708;10.816;2023-07-31T11:15:43;25.10;99.90
9383;DHT22;4731;49.708;10.816;2023-07-31T11:18:10;24.30;99.90
9383;DHT22;4731;49.708;10.816;2023-07-31T11:20:38;24.40;99.90
9383;DHT22;4731;49.708;10.816;2023-07-31T11:23:08;24.50;99.90
9383;DHT22;4731;49.708;10.816;2023-07-31T11:25:36;24.80;99.90
9383;DHT22;4731;49.708;10.816;2023-07-31T11:28:05;24.70;99.90
9383;DHT22;4731;49.708;10.816;2023-07-31T11:30:32;24.20;99.90
9383;DHT22;4731;49.708;10.816;2023-07-31T11:33:01;24.10;99.90
9383;DHT22;4731;49.708;10.816;2023-07-31T11:35:29;24.20;99.90
9383;DHT22;4731;49.708;10.816;2023-07-31T11:37:56;26.30;99.90
9383;DHT22;4731;49.708;10.816;2023-07-31T11:40:24;26.00;99.90
9383;DHT22;4731;49.708;10.816;2023-07-31T11:42:55;24.90;99.90
9383;DHT22;4731;49.708;10.816;2023-07-31T11:45:24;24.00;99.90
9383;DHT22;4731;49.708;10.816;2023-07-31T11:47:52;24.00;99.90
9383;DHT22;4731;49.708;10.816;2023-07-31T11:50:20;24.20;99.90
9383;DHT22;4731;49.708;10.816;2023-07-31T11:52:48;24.40;99.90
9383;DHT22;4731;49.708;10.816;2023-07-31T11:55:17;24.80;99.90
9383;DHT22;4731;49.708;10.816;2023-07-31T11:57:47;24.90;99.90
9383;DHT22;4731;49.708;10.816;2023-07-31T12:00:15;25.00;99.90
9383;DHT22;4731;49.708;10.816;2023-07-31T12:02:42;24.90;99.90
9383;DHT22;4731;49.708;10.816;2023-07-31T12:05:10;24.60;99.90
9383;DHT22;4731;49.708;10.816;2023-07-31T12:07:45;24.40;99.90
9383;DHT22;4731;49.708;10.816;2023-07-31T12:10:26;24.10;99.90
9383;DHT22;4731;49.708;10.816;2023-07-31T12:13:02;23.80;99.90
9383;DHT22;4731;49.708;10.816;2023-07-31T12:15:32;23.60;99.90
9383;DHT22;4731;49.708;10.816;2023-07-31T12:17:59;25.00;99.90
9383;DHT22;4731;49.708;10.816;2023-07-31T12:20:26;23.50;99.90
9383;DHT22;4731;49.708;10.816;2023-07-31T12:22:56;23.60;99.90
9383;DHT22;4731;49.708;10.816;2023-07-31T12:25:28;23.70;99.90
9383;DHT22;4731;49.708;10.816;2023-07-31T12:27:54;23.60;99.90
9383;DHT22;4731;49.708;10.816;2023-07-31T12:30:29;23.70;99.90
9383;DHT22;4731;49.708;10.816;2023-07-31T12:33:01;24.00;99.90
9383;DHT22;4731;49.708;10.816;2023-07-31T12:35:35;24.40;99.90
9383;DHT22;4731;49.708;10.816;2023-07-31T12:38:02;24.60;99.90
9383;DHT22;4731;49.708;10.816;2023-07-31T12:40:29;24.50;99.90
9383;DHT22;4731;49.708;10.816;2023-07-31T12:42:56;24.50;99.90
9383;DHT22;4731;49.708;10.816;2023-07-31T12:45:23;24.90;99.90
9383;DHT22;4731;49.708;10.816;2023-07-31T12:47:51;25.90;99.90
9383;DHT22;4731;49.708;10.816;2023-07-31T12:50:18;25.30;99.90
9383;DHT22;4731;49.708;10.816;2023-07-31T12:52:45;25.10;99.90
9383;DHT22;4731;49.708;10.816;2023-07-31T12:55:12;24.80;99.90
9383;DHT22;4731;49.708;10.816;2023-07-31T12:57:39;24.70;99.90
9383;DHT22;4731;49.708;10.816;2023-07-31T13:00:08;26.50;99.90
9383;DHT22;4731;49.708;10.816;2023-07-31T13:02:34;24.60;99.90
9383;DHT22;4731;49.708;10.816;2023-07-31T13:05:03;24.60;99.90
9383;DHT22;4731;49.708;10.816;2023-07-31T13:07:30;24.80;99.90
9383;DHT22;4731;49.708;10.816;2023-07-31T13:09:57;25.10;99.90
9383;DHT22;4731;49.708;10.816;2023-07-31T13:12:24;25.10;99.90
9383;DHT22;4731;49.708;10.816;2023-07-31T13:14:51;24.80;99.90
9383;DHT22;4731;49.708;10.816;2023-07-31T13:17:18;24.70;99.90
9383;DHT22;4731;49.708;10.816;2023-07-31T13:19:45;25.00;99.90
9383;DHT22;4731;49.708;10.816;2023-07-31T13:22:13;25.00;99.90
9383;DHT22;4731;49.708;10.816;2023-07-31T13:24:39;24.60;99.90
9383;DHT22;4731;49.708;10.816;2023-07-31T13:27:06;23.40;99.90
9383;DHT22;4731;49.708;10.816;2023-07-31T13:29:33;24.40;99.90
9383;DHT22;4731;49.708;10.816;2023-07-31T13:32:00;24.70;99.90
9383;DHT22;4731;49.708;10.816;2023-07-31T13:34:26;25.00;99.90
9383;DHT22;4731;49.708;10.816;2023-07-31T13:36:54;25.00;99.90
9383;DHT22;4731;49.708;10.816;2023-07-31T13:39:23;25.10;99.90
9383;DHT22;4731;49.708;10.816;2023-07-31T13:41:49;25.90;99.90
9383;DHT22;4731;49.708;10.816;2023-07-31T13:44:16;25.20;99.90
9383;DHT22;4731;49.708;10.816;2023-07-31T13:46:43;25.00;99.90
9383;DHT22;4731;49.708;10.816;2023-07-31T13:49:09;25.00;99.90
9383;DHT22;4731;49.708;10.816;2023-07-31T13:51:36;25.00;99.90
9383;DHT22;4731;49.708;10.816;2023-07-31T13:54:04;24.90;99.90
9383;DHT22;4731;49.708;10.816;2023-07-31T13:56:33;24.90;99.90
9383;DHT22;4731;49.708;10.816;2023-07-31T13:59:00;24.80;99.90
9383;DHT22;4731;49.708;10.816;2023-07-31T14:01:27;24.60;99.90
9383;DHT22;4731;49.708;10.816;2023-07-31T14:03:54;24.60;99.90
9383;DHT22;4731;49.708;10.816;2023-07-31T14:06:21;26.00;99.90
9383;DHT22;4731;49.708;10.816;2023-07-31T14:08:47;24.40;99.90
9383;DHT22;4731;49.708;10.816;2023-07-31T14:11:15;24.20;99.90
9383;DHT22;4731;49.708;10.816;2023-07-31T14:13:43;25.10;99.90
9383;DHT22;4731;49.708;10.816;2023-07-31T14:16:10;24.00;99.90
9383;DHT22;4731;49.708;10.816;2023-07-31T14:18:37;24.00;99.90
9383;DHT22;4731;49.708;10.816;2023-07-31T14:21:04;25.60;99.90
9383;DHT22;4731;49.708;10.816;2023-07-31T14:23:31;24.00;99.90
9383;DHT22;4731;49.708;10.816;2023-07-31T14:25:58;24.00;99.90
9383;DHT22;4731;49.708;10.816;2023-07-31T14:28:24;24.00;99.90
9383;DHT22;4731;49.708;10.816;2023-07-31T14:30:52;24.10;99.90
9383;DHT22;4731;49.708;10.816;2023-07-31T14:33:19;26.00;99.90
9383;DHT22;4731;49.708;10.816;2023-07-31T14:35:46;24.00;99.90
9383;DHT22;4731;49.708;10.816;2023-07-31T14:38:13;24.10;99.90
9383;DHT22;4731;49.708;10.816;2023-07-31T14:40:39;24.00;99.90
9383;DHT22;4731;49.708;10.816;2023-07-31T14:43:06;23.80;99.90
9383;DHT22;4731;49.708;10.816;2023-07-31T14:45:33;23.80;99.90
9383;DHT22;4731;49.708;10.816;2023-07-31T14:48:02;23.70;99.90
9383;DHT22;4731;49.708;10.816;2023-07-31T14:50:29;23.70;99.90
9383;DHT22;4731;49.708;10.816;2023-07-31T14:52:56;23.50;99.90
9383;DHT22;4731;49.708;10.816;2023-07-31T14:55:23;23.40;99.90
9383;DHT22;4731;49.708;10.816;2023-07-31T14:57:50;23.70;99.90
9383;DHT22;4731;49.708;10.816;2023-07-31T15:00:17;23.20;99.90
9383;DHT22;4731;49.708;10.816;2023-07-31T15:02:43;23.10;99.90
9383;DHT22;4731;49.708;10.816;2023-07-31T15:05:11;23.00;99.90
9383;DHT22;4731;49.708;10.816;2023-07-31T15:07:39;23.00;99.90
9383;DHT22;4731;49.708;10.816;2023-07-31T15:10:07;23.00;99.90
9383;DHT22;4731;49.708;10.816;2023-07-31T15:12:34;22.80;99.90
9383;DHT22;4731;49.708;10.816;2023-07-31T15:15:03;24.30;99.90
9383;DHT22;4731;49.708;10.816;2023-07-31T15:17:30;22.60;99.90
9383;DHT22;4731;49.708;10.816;2023-07-31T15:19:57;22.60;99.90
9383;DHT22;4731;49.708;10.816;2023-07-31T15:22:26;22.50;99.90
9383;DHT22;4731;49.708;10.816;2023-07-31T15:24:52;24.60;99.90
9383;DHT22;4731;49.708;10.816;2023-07-31T15:27:19;22.60;99.90
9383;DHT22;4731;49.708;10.816;2023-07-31T15:29:46;23.10;99.90
9383;DHT22;4731;49.708;10.816;2023-07-31T15:32:13;22.60;99.90
9383;DHT22;4731;49.708;10.816;2023-07-31T15:34:39;22.70;99.90
9383;DHT22;4731;49.708;10.816;2023-07-31T15:37:07;22.60;99.90
9383;DHT22;4731;49.708;10.816;2023-07-31T15:39:35;22.60;99.90
9383;DHT22;4731;49.708;10.816;2023-07-31T15:42:01;22.70;99.90
9383;DHT22;4731;49.708;10.816;2023-07-31T15:44:29;22.80;99.90
9383;DHT22;4731;49.708;10.816;2023-07-31T15:46:55;23.40;99.90
9383;DHT22;4731;49.708;10.816;2023-07-31T15:49:22;23.10;99.90